createdAt,value
2019-04-19T00:01:47.625Z,60402.97
2019-04-19T00:04:16.153Z,60371.46
2019-04-19T00:06:45.951Z,60366.39
2019-04-19T00:09:28.388Z,60385.69
2019-04-19T00:11:58.431Z,60393.82
2019-04-19T00:14:14.979Z,60390.77
2019-04-19T00:16:44.860Z,60396.87
2019-04-19T00:19:31.522Z,60395.86
2019-04-19T00:22:11.703Z,60394.84
2019-04-19T00:24:14.493Z,60406.02
2019-04-19T00:26:44.234Z,60388.74
2019-04-19T00:29:22.629Z,60385.69
2019-04-19T00:32:00.269Z,60387.72
2019-04-19T00:34:14.621Z,60393.82
2019-04-19T00:36:43.160Z,60376.55
2019-04-19T00:39:38.484Z,60408.05
2019-04-19T00:42:18.119Z,60390.77
2019-04-19T00:44:53.312Z,60384.68
2019-04-19T00:47:19.422Z,60378.58
2019-04-19T00:49:44.522Z,60371.46
2019-04-19T00:52:15.937Z,60382.64
2019-04-19T00:54:46.003Z,60361.30
2019-04-19T00:57:15.577Z,60382.64
2019-04-19T00:59:40.482Z,60393.82
2019-04-19T01:02:10.216Z,60393.82
2019-04-19T01:04:36.257Z,60390.77
2019-04-19T01:07:06.816Z,60370.45
2019-04-19T01:09:46.464Z,60419.23
2019-04-19T01:12:19.575Z,60390.77
2019-04-19T01:14:43.710Z,60397.89
2019-04-19T01:17:20.647Z,60415.16
2019-04-19T01:19:38.906Z,60387.72
2019-04-19T01:22:11.802Z,60408.05
2019-04-19T01:24:41.302Z,60391.79
2019-04-19T01:27:06.930Z,60396.87
2019-04-19T01:29:38.119Z,60398.90
2019-04-19T01:32:10.526Z,60374.52
2019-04-19T01:34:35.858Z,60381.63
2019-04-19T01:37:11.354Z,60400.93
2019-04-19T01:39:52.395Z,60385.69
2019-04-19T01:42:24.903Z,60415.16
2019-04-19T01:45:04.965Z,60372.48
2019-04-19T01:47:40.518Z,60415.16
2019-04-19T01:50:05.530Z,60381.63
2019-04-19T01:52:58.075Z,60391.79
2019-04-19T01:55:05.905Z,60387.72
2019-04-19T01:57:24.367Z,60380.61
2019-04-19T01:59:57.199Z,60389.76
2019-04-19T02:02:26.043Z,60408.05
2019-04-19T02:05:00.775Z,60415.16
2019-04-19T02:07:27.482Z,60391.79
2019-04-19T02:10:07.634Z,60409.07
2019-04-19T02:12:36.773Z,60408.05
2019-04-19T02:15:00.970Z,60392.80
2019-04-19T02:17:27.644Z,60376.55
2019-04-19T02:19:59.877Z,60397.89
2019-04-19T02:22:29.782Z,60386.71
2019-04-19T02:24:57.419Z,60408.05
2019-04-19T02:27:31.006Z,60413.13
2019-04-19T02:30:02.926Z,60383.66
2019-04-19T02:32:40.942Z,60391.79
2019-04-19T02:35:20.174Z,60399.92
2019-04-19T02:37:52.946Z,60367.40
2019-04-19T02:40:39.246Z,60399.92
2019-04-19T02:42:50.986Z,60405.00
2019-04-19T02:48:10.865Z,60380.61
2019-04-19T02:51:00.761Z,60377.56
2019-04-19T02:53:10.616Z,60385.69
2019-04-19T02:58:02.605Z,60397.89
2019-04-19T03:03:06.078Z,60422.27
2019-04-19T03:05:38.318Z,60383.66
2019-04-19T03:07:46.101Z,60417.20
2019-04-19T03:10:19.358Z,60409.07
2019-04-19T03:13:03.234Z,60423.29
2019-04-19T03:15:36.693Z,60372.48
2019-04-19T03:18:05.834Z,60395.86
2019-04-19T03:20:32.382Z,60400.93
2019-04-19T03:23:07.088Z,60386.71
2019-04-19T03:25:31.279Z,60407.03
2019-04-19T03:28:00.967Z,60416.18
2019-04-19T03:30:46.544Z,60429.39
2019-04-19T03:35:46.328Z,60385.69
2019-04-19T03:38:07.155Z,60396.87
2019-04-19T03:40:48.630Z,60387.72
2019-04-19T03:43:08.894Z,60413.13
2019-04-19T03:45:43.628Z,60395.86
2019-04-19T03:48:17.188Z,60401.95
2019-04-19T03:50:38.160Z,60389.76
2019-04-19T03:53:15.338Z,60415.16
2019-04-19T03:55:40.471Z,60408.05
2019-04-19T03:58:00.546Z,60405.00
2019-04-19T04:00:24.061Z,60427.36
2019-04-19T04:02:54.083Z,60401.95
2019-04-19T04:05:24.309Z,60415.16
2019-04-19T04:08:02.457Z,60408.05
2019-04-19T04:10:31.117Z,60412.11
2019-04-19T04:13:29.807Z,60395.86
2019-04-19T04:16:17.125Z,60429.39
2019-04-19T04:18:36.437Z,60393.82
2019-04-19T04:21:05.491Z,60400.93
2019-04-19T04:23:39.487Z,60403.98
2019-04-19T04:26:10.135Z,60411.10
2019-04-19T04:28:48.199Z,60401.95
2019-04-19T04:31:15.101Z,60411.10
2019-04-19T04:33:47.158Z,60395.86
2019-04-19T04:36:25.232Z,60408.05
2019-04-19T04:38:40.716Z,60401.95
2019-04-19T04:41:10.949Z,60431.42
2019-04-19T04:43:48.349Z,60421.26
2019-04-19T04:46:33.843Z,60430.40
2019-04-19T04:48:58.277Z,60409.07
2019-04-19T04:51:31.046Z,60447.68
2019-04-19T04:53:45.377Z,60424.31
2019-04-19T04:56:15.551Z,60418.21
2019-04-19T04:58:47.430Z,60413.13
2019-04-19T05:01:27.107Z,60430.40
2019-04-19T05:04:01.903Z,60401.95
2019-04-19T05:06:29.539Z,60440.57
2019-04-19T05:08:58.560Z,60419.23
2019-04-19T05:11:30.612Z,60392.80
2019-04-19T05:14:07.772Z,60413.13
2019-04-19T05:16:46.425Z,60419.23
2019-04-19T05:19:08.129Z,60413.13
2019-04-19T05:21:32.939Z,60425.32
2019-04-19T05:24:08.859Z,60431.42
2019-04-19T05:26:41.001Z,60420.24
2019-04-19T05:28:59.697Z,60417.20
2019-04-19T05:31:29.030Z,60439.55
2019-04-19T05:34:09.773Z,60407.03
2019-04-19T05:36:40.271Z,60437.52
2019-04-19T05:39:16.021Z,60418.21
2019-04-19T05:41:43.505Z,60407.03
2019-04-19T05:46:51.827Z,60420.24
2019-04-19T05:49:16.265Z,60401.95
2019-04-19T05:54:07.261Z,60433.45
2019-04-19T05:56:31.053Z,60410.08
2019-04-19T05:59:08.864Z,60420.24
2019-04-19T06:01:48.385Z,60417.20
2019-04-19T06:04:18.513Z,60414.14
2019-04-19T06:06:54.039Z,60430.40
2019-04-19T06:09:00.524Z,60412.11
2019-04-19T06:11:33.314Z,60417.20
2019-04-19T06:14:18.361Z,60428.37
2019-04-19T06:16:43.932Z,60402.97
2019-04-19T06:19:26.743Z,60403.98
2019-04-19T06:21:50.645Z,60419.23
2019-04-19T06:24:21.695Z,60416.18
2019-04-19T06:27:07.280Z,60410.08
2019-04-19T06:29:31.359Z,60405.00
2019-04-19T06:31:58.543Z,60391.79
2019-04-19T06:34:26.360Z,60399.92
2019-04-19T06:36:35.377Z,60407.03
2019-04-19T06:39:05.568Z,60383.66
2019-04-19T06:41:42.911Z,60412.11
2019-04-19T06:44:12.792Z,60395.86
2019-04-19T06:46:48.681Z,60397.89
2019-04-19T06:49:12.818Z,60397.89
2019-04-19T06:51:43.646Z,60407.03
2019-04-19T06:54:08.723Z,60396.87
2019-04-19T06:56:40.071Z,60412.11
2019-04-19T06:59:17.374Z,60421.26
2019-04-19T07:01:43.758Z,60390.77
2019-04-19T07:04:06.262Z,60419.23
2019-04-19T07:06:48.100Z,60392.80
2019-04-19T07:09:33.441Z,60387.72
2019-04-19T07:12:02.435Z,60382.64
2019-04-19T07:14:14.606Z,60393.82
2019-04-19T07:16:56.313Z,60408.05
2019-04-19T07:19:30.683Z,60389.76
2019-04-19T07:21:57.827Z,60382.64
2019-04-19T07:24:35.393Z,60406.02
2019-04-19T07:26:59.401Z,60384.68
2019-04-19T07:29:10.622Z,60363.34
2019-04-19T07:31:40.179Z,60394.84
2019-04-19T07:34:22.177Z,60375.53
2019-04-19T07:36:57.653Z,60361.30
2019-04-19T07:39:27.899Z,60384.68
2019-04-19T07:42:03.410Z,60381.63
2019-04-19T07:44:22.268Z,60360.29
2019-04-19T07:47:01.117Z,60367.40
2019-04-19T07:49:15.928Z,60365.37
2019-04-19T07:51:56.481Z,60350.12
2019-04-19T07:54:21.534Z,60365.37
2019-04-19T07:56:55.815Z,60379.59
2019-04-19T07:59:39.346Z,60358.25
2019-04-19T08:07:22.640Z,60342.00
2019-04-19T08:14:48.068Z,60354.19
2019-04-19T08:17:35.448Z,60360.29
2019-04-19T08:29:35.201Z,60334.88
2019-04-19T08:31:50.900Z,60335.90
2019-04-19T08:34:21.391Z,60336.91
2019-04-19T08:36:55.362Z,60310.50
2019-04-19T08:39:39.735Z,60329.80
2019-04-19T08:42:09.411Z,60336.91
2019-04-19T08:44:35.797Z,60336.91
2019-04-19T08:47:21.826Z,60307.45
2019-04-19T08:49:44.881Z,60333.87
2019-04-19T08:52:19.696Z,60315.57
2019-04-19T08:55:07.331Z,60313.54
2019-04-19T08:57:18.583Z,60326.75
2019-04-19T09:00:08.146Z,60335.90
2019-04-19T09:02:29.020Z,60322.69
2019-04-19T09:05:07.382Z,60312.53
2019-04-19T09:10:17.908Z,60314.56
2019-04-19T09:12:30.663Z,60309.48
2019-04-19T09:15:00.941Z,60306.43
2019-04-19T09:17:43.052Z,60310.50
2019-04-19T09:22:29.313Z,60292.21
2019-04-19T09:24:54.946Z,60278.99
2019-04-19T09:27:41.974Z,60272.90
2019-04-19T09:30:06.540Z,60298.30
2019-04-19T09:32:21.636Z,60265.79
2019-04-19T09:34:55.117Z,60259.69
2019-04-19T09:37:29.353Z,60257.66
2019-04-19T09:39:56.549Z,60284.07
2019-04-19T09:42:30.302Z,60247.49
2019-04-19T09:44:55.005Z,60246.48
2019-04-19T09:47:19.215Z,60241.40
2019-04-19T09:50:01.421Z,60243.43
2019-04-19T09:52:45.578Z,60240.38
2019-04-19T09:55:13.785Z,60225.14
2019-04-19T09:57:41.395Z,60223.11
2019-04-19T09:59:57.665Z,60222.09
2019-04-19T10:02:29.007Z,60220.06
2019-04-19T10:04:52.853Z,60211.93
2019-04-19T10:07:21.293Z,60233.27
2019-04-19T10:09:59.100Z,60230.22
2019-04-19T10:12:19.813Z,60222.09
2019-04-19T10:14:49.232Z,60209.90
2019-04-19T10:17:20.392Z,60207.86
2019-04-19T10:19:48.922Z,60227.17
2019-04-19T10:22:18.458Z,60208.88
2019-04-19T10:24:47.800Z,60201.77
2019-04-19T10:27:27.332Z,60204.82
2019-04-19T10:29:55.963Z,60181.45
2019-04-19T10:32:35.325Z,60199.74
2019-04-19T10:35:04.454Z,60183.48
2019-04-19T10:37:33.651Z,60178.40
2019-04-19T10:40:02.237Z,60202.79
2019-04-19T10:42:31.536Z,60183.48
2019-04-19T10:45:00.382Z,60167.22
2019-04-19T10:47:29.447Z,60177.38
2019-04-19T10:50:12.047Z,60149.95
2019-04-19T10:52:29.284Z,60155.03
2019-04-19T10:54:59.454Z,60141.82
2019-04-19T10:57:29.465Z,60142.83
2019-04-19T11:00:01.597Z,60134.70
2019-04-19T11:02:32.154Z,60139.79
2019-04-19T11:05:00.962Z,60126.57
2019-04-19T11:07:30.033Z,60149.95
2019-04-19T11:09:59.834Z,60144.87
2019-04-19T11:12:28.505Z,60181.45
2019-04-19T11:14:57.946Z,60161.12
2019-04-19T11:17:27.609Z,60146.90
2019-04-19T11:20:12.334Z,60154.01
2019-04-19T11:22:27.763Z,60141.82
2019-04-19T11:24:56.757Z,60171.29
2019-04-19T11:27:25.143Z,60134.70
2019-04-19T11:29:56.438Z,60177.38
2019-04-19T11:32:26.576Z,60170.27
2019-04-19T11:34:55.654Z,60161.12
2019-04-19T11:37:25.463Z,60166.20
2019-04-19T11:39:55.123Z,60180.43
2019-04-19T11:42:23.623Z,60168.23
2019-04-19T11:44:52.123Z,60143.85
2019-04-19T11:47:20.772Z,60171.29
2019-04-19T11:49:49.377Z,60175.35
2019-04-19T11:52:19.877Z,60178.40
2019-04-19T11:54:48.460Z,60179.41
2019-04-19T11:57:28.313Z,60195.67
2019-04-19T11:59:59.402Z,60191.61
2019-04-19T12:02:30.724Z,60161.12
2019-04-19T12:05:03.745Z,60162.14
2019-04-19T12:07:30.518Z,60167.22
2019-04-19T12:09:58.957Z,60143.85
2019-04-19T12:12:27.637Z,60153.00
2019-04-19T12:14:56.002Z,60122.51
2019-04-19T12:17:25.238Z,60148.93
2019-04-19T12:19:59.276Z,60144.87
2019-04-19T12:22:25.322Z,60125.56
2019-04-19T12:24:55.378Z,60161.12
2019-04-19T12:27:23.954Z,60134.70
2019-04-19T12:29:54.956Z,60165.19
2019-04-19T12:32:25.418Z,60158.07
2019-04-19T12:34:54.999Z,60164.17
2019-04-19T12:37:24.642Z,60147.91
2019-04-19T12:39:54.757Z,60143.85
2019-04-19T12:42:33.938Z,60137.75
2019-04-19T12:45:03.916Z,60138.77
2019-04-19T12:47:33.160Z,60144.87
2019-04-19T12:50:07.046Z,60145.88
2019-04-19T12:52:31.771Z,60146.90
2019-04-19T12:55:00.183Z,60144.87
2019-04-19T12:57:30.202Z,60149.95
2019-04-19T12:59:58.585Z,60138.77
2019-04-19T13:02:31.730Z,60134.70
2019-04-19T13:05:04.666Z,60136.73
2019-04-19T13:07:33.331Z,60134.70
2019-04-19T13:10:02.883Z,60141.82
2019-04-19T13:12:31.301Z,60142.83
2019-04-19T13:14:59.923Z,60137.75
2019-04-19T13:17:28.483Z,60150.96
2019-04-19T13:20:07.569Z,60139.79
2019-04-19T13:22:28.224Z,60151.98
2019-04-19T13:24:57.253Z,60153.00
2019-04-19T13:27:37.425Z,60139.79
2019-04-19T13:30:08.781Z,60133.69
2019-04-19T13:32:26.064Z,60142.83
2019-04-19T13:34:55.038Z,60156.04
2019-04-19T13:37:25.182Z,60142.83
2019-04-19T13:40:12.304Z,60149.95
2019-04-19T13:42:41.346Z,60146.90
2019-04-19T13:45:20.946Z,60145.88
2019-04-19T13:47:42.506Z,60148.93
2019-04-19T13:50:21.410Z,60141.82
2019-04-19T13:52:42.197Z,60153.00
2019-04-19T13:55:11.061Z,60157.06
2019-04-19T13:57:39.765Z,60166.20
2019-04-19T14:00:13.405Z,60166.20
2019-04-19T14:02:41.797Z,60167.22
2019-04-19T14:05:11.777Z,60160.11
2019-04-19T14:07:41.150Z,60164.17
2019-04-19T14:10:09.934Z,60188.56
2019-04-19T14:12:38.907Z,60173.32
2019-04-19T14:15:08.783Z,60167.22
2019-04-19T14:17:37.961Z,60163.16
2019-04-19T14:20:12.627Z,60169.25
2019-04-19T14:22:41.464Z,60179.41
2019-04-19T14:25:11.519Z,60163.16
2019-04-19T14:27:41.755Z,60178.40
2019-04-19T14:30:11.198Z,60181.45
2019-04-19T14:32:39.748Z,60167.22
2019-04-19T14:35:10.125Z,60172.30
2019-04-19T14:37:38.573Z,60180.43
2019-04-19T14:40:10.202Z,60166.20
2019-04-19T14:42:38.711Z,60196.69
2019-04-19T14:45:08.027Z,60173.32
2019-04-19T14:47:37.033Z,60184.49
2019-04-19T14:50:07.319Z,60208.88
2019-04-19T14:52:36.562Z,60189.57
2019-04-19T14:55:07.907Z,60169.25
2019-04-19T14:57:36.887Z,60192.62
2019-04-19T15:00:09.195Z,60171.29
2019-04-19T15:02:47.329Z,60195.67
2019-04-19T15:05:17.571Z,60177.38
2019-04-19T15:07:46.471Z,60196.69
2019-04-19T15:10:15.674Z,60187.54
2019-04-19T15:12:44.956Z,60192.62
2019-04-19T15:15:14.564Z,60189.57
2019-04-19T15:17:43.177Z,60186.52
2019-04-19T15:20:13.952Z,60191.61
2019-04-19T15:22:42.512Z,60202.79
2019-04-19T15:25:12.883Z,60189.57
2019-04-19T15:27:43.014Z,60202.79
2019-04-19T15:30:13.066Z,60190.59
2019-04-19T15:32:42.438Z,60202.79
2019-04-19T15:35:13.838Z,60188.56
2019-04-19T15:37:43.477Z,60190.59
2019-04-19T15:40:16.081Z,60199.74
2019-04-19T15:42:45.405Z,60205.83
2019-04-19T15:45:14.722Z,60196.69
2019-04-19T15:47:44.498Z,60223.11
2019-04-19T15:50:13.795Z,60195.67
2019-04-19T15:52:42.428Z,60201.77
2019-04-19T15:55:12.247Z,60212.95
2019-04-19T15:57:41.882Z,60202.79
2019-04-19T16:00:14.182Z,60212.95
2019-04-19T16:02:44.364Z,60202.79
2019-04-19T16:05:31.544Z,60218.03
2019-04-19T16:08:06.456Z,60206.85
2019-04-19T16:10:48.690Z,60219.04
2019-04-19T16:13:18.047Z,60229.20
2019-04-19T16:15:47.776Z,60206.85
2019-04-19T16:18:17.873Z,60197.70
2019-04-19T16:20:49.304Z,60215.99
2019-04-19T16:23:16.463Z,60219.04
2019-04-19T16:25:47.597Z,60220.06
2019-04-19T16:28:15.270Z,60225.14
2019-04-19T16:30:44.214Z,60228.19
2019-04-19T16:33:13.552Z,60223.11
2019-04-19T16:35:42.479Z,60228.19
2019-04-19T16:38:11.947Z,60222.09
2019-04-19T16:40:40.617Z,60233.27
2019-04-19T16:43:09.105Z,60224.12
2019-04-19T16:45:37.884Z,60220.06
2019-04-19T16:48:07.801Z,60222.09
2019-04-19T16:50:36.644Z,60206.85
2019-04-19T16:53:06.917Z,60220.06
2019-04-19T16:55:35.989Z,60231.24
2019-04-19T16:58:04.681Z,60237.33
2019-04-19T17:00:42.791Z,60237.33
2019-04-19T17:03:11.863Z,60226.16
2019-04-19T17:05:40.262Z,60223.11
2019-04-19T17:08:09.505Z,60211.93
2019-04-19T17:10:38.671Z,60230.22
2019-04-19T17:13:07.064Z,60227.17
2019-04-19T17:15:37.169Z,60225.14
2019-04-19T17:18:14.523Z,60249.53
2019-04-19T17:20:53.493Z,60239.36
2019-04-19T17:23:22.448Z,60250.54
2019-04-19T17:25:50.883Z,60251.56
2019-04-19T17:28:19.313Z,60266.80
2019-04-19T17:30:48.408Z,60251.56
2019-04-19T17:33:17.958Z,60241.40
2019-04-19T17:35:48.081Z,60257.66
2019-04-19T17:38:26.959Z,60250.54
2019-04-19T17:40:46.915Z,60249.53
2019-04-19T17:43:15.380Z,60255.63
2019-04-19T17:45:44.270Z,60248.51
2019-04-19T17:48:13.016Z,60249.53
2019-04-19T17:50:41.963Z,60243.43
2019-04-19T17:53:10.731Z,60257.66
2019-04-19T17:55:43.537Z,60263.75
2019-04-19T17:58:09.739Z,60258.67
2019-04-19T18:00:38.157Z,60250.54
2019-04-19T18:03:07.024Z,60261.72
2019-04-19T18:05:38.048Z,60266.80
2019-04-19T18:08:06.590Z,60255.63
2019-04-19T18:10:43.314Z,60273.91
2019-04-19T18:13:05.395Z,60271.88
2019-04-19T18:15:34.945Z,60291.19
2019-04-19T18:18:08.302Z,60282.04
2019-04-19T18:20:36.830Z,60259.69
2019-04-19T18:23:10.370Z,60282.04
2019-04-19T18:25:41.207Z,60261.72
2019-04-19T18:28:10.719Z,60276.96
2019-04-19T18:30:45.641Z,60278.99
2019-04-19T18:33:12.730Z,60283.06
2019-04-19T18:35:42.209Z,60284.07
2019-04-19T18:38:15.701Z,60285.09
2019-04-19T18:40:40.931Z,60267.82
2019-04-19T18:43:22.278Z,60283.06
2019-04-19T18:45:41.997Z,60277.98
2019-04-19T18:48:11.476Z,60290.17
2019-04-19T18:50:42.503Z,60306.43
2019-04-19T18:53:18.999Z,60300.34
2019-04-19T18:55:44.117Z,60302.37
2019-04-19T18:58:13.197Z,60292.21
2019-04-19T19:00:44.296Z,60295.25
2019-04-19T19:03:11.544Z,60306.43
2019-04-19T19:05:44.271Z,60304.40
2019-04-19T19:08:17.585Z,60300.34
2019-04-19T19:10:45.194Z,60295.25
2019-04-19T19:13:10.497Z,60315.57
2019-04-19T19:15:44.982Z,60289.16
2019-04-19T19:18:08.984Z,60308.46
2019-04-19T19:20:41.621Z,60309.48
2019-04-19T19:23:20.285Z,60319.64
2019-04-19T19:25:48.205Z,60304.40
2019-04-19T19:28:11.606Z,60309.48
2019-04-19T19:30:40.668Z,60318.62
2019-04-19T19:33:16.370Z,60316.59
2019-04-19T19:35:45.803Z,60303.38
2019-04-19T19:38:15.635Z,60325.74
2019-04-19T19:40:54.768Z,60327.77
2019-04-19T19:43:30.280Z,60309.48
2019-04-19T19:45:51.497Z,60310.50
2019-04-19T19:48:31.015Z,60305.41
2019-04-19T19:51:09.851Z,60314.56
2019-04-19T19:53:40.520Z,60306.43
2019-04-19T19:56:11.380Z,60329.80
2019-04-19T19:58:25.588Z,60310.50
2019-04-19T20:01:00.785Z,60325.74
2019-04-19T20:03:21.406Z,60329.80
2019-04-19T20:05:44.282Z,60317.61
2019-04-19T20:08:20.053Z,60312.53
2019-04-19T20:10:45.946Z,60321.67
2019-04-19T20:13:16.103Z,60326.75
2019-04-19T20:15:45.953Z,60337.93
2019-04-19T20:18:14.132Z,60316.59
2019-04-19T20:20:44.401Z,60326.75
2019-04-19T20:23:21.762Z,60327.77
2019-04-19T20:25:50.602Z,60310.50
2019-04-19T20:28:20.369Z,60333.87
2019-04-19T20:30:47.093Z,60332.85
2019-04-19T20:33:16.162Z,60318.62
2019-04-19T20:35:46.048Z,60328.79
2019-04-19T20:38:18.736Z,60353.18
2019-04-19T20:40:51.530Z,60338.95
2019-04-19T20:43:31.518Z,60334.88
2019-04-19T20:45:49.633Z,60327.77
2019-04-19T20:48:20.471Z,60328.79
2019-04-19T20:50:56.118Z,60346.06
2019-04-19T20:53:32.277Z,60316.59
2019-04-19T20:56:29.281Z,60309.48
2019-04-19T20:58:33.270Z,60329.80
2019-04-19T21:00:56.790Z,60319.64
2019-04-19T21:03:32.707Z,60326.75
2019-04-19T21:05:56.312Z,60330.82
2019-04-19T21:08:26.661Z,60312.53
2019-04-19T21:11:00.481Z,60327.77
2019-04-19T21:13:27.168Z,60330.82
2019-04-19T21:15:56.297Z,60342.00
2019-04-19T21:18:27.422Z,60344.03
2019-04-19T21:21:02.676Z,60321.67
2019-04-19T21:23:27.980Z,60328.79
2019-04-19T21:25:59.066Z,60324.72
2019-04-19T21:28:35.555Z,60347.08
2019-04-19T21:31:00.898Z,60332.85
2019-04-19T21:33:26.863Z,60330.82
2019-04-19T21:36:02.184Z,60303.38
2019-04-19T21:38:27.178Z,60324.72
2019-04-19T21:40:55.795Z,60338.95
2019-04-19T21:43:28.350Z,60338.95
2019-04-19T21:45:55.062Z,60355.21
2019-04-19T21:48:26.924Z,60350.12
2019-04-19T21:50:55.341Z,60320.66
2019-04-19T21:53:25.849Z,60338.95
2019-04-19T21:56:02.133Z,60347.08
2019-04-19T21:58:25.173Z,60358.25
2019-04-19T22:01:08.144Z,60316.59
2019-04-19T22:03:31.011Z,60338.95
2019-04-19T22:06:02.839Z,60345.04
2019-04-19T22:08:33.389Z,60348.09
2019-04-19T22:11:00.672Z,60323.71
2019-04-19T22:13:34.372Z,60355.21
2019-04-19T22:16:02.004Z,60327.77
2019-04-19T22:18:32.165Z,60345.04
2019-04-19T22:21:03.159Z,60357.24
2019-04-19T22:23:30.895Z,60326.75
2019-04-19T22:26:14.551Z,60350.12
2019-04-19T22:28:29.989Z,60349.11
2019-04-19T22:31:00.244Z,60351.14
2019-04-19T22:33:28.524Z,60342.00
2019-04-19T22:36:00.527Z,60361.30
2019-04-19T22:38:27.623Z,60351.14
2019-04-19T22:41:01.110Z,60336.91
2019-04-19T22:43:26.930Z,60373.50
2019-04-19T22:46:01.866Z,60336.91
2019-04-19T22:48:26.758Z,60361.30
2019-04-19T22:50:57.413Z,60348.09
2019-04-19T22:53:32.122Z,60356.22
2019-04-19T22:56:12.171Z,60349.11
2019-04-19T22:58:28.802Z,60334.88
2019-04-19T23:00:58.972Z,60342.00
2019-04-19T23:03:35.509Z,60328.79
2019-04-19T23:06:03.583Z,60336.91
2019-04-19T23:08:36.740Z,60343.01
2019-04-19T23:11:05.581Z,60340.98
2019-04-19T23:13:33.602Z,60359.27
2019-04-19T23:16:06.448Z,60330.82
2019-04-19T23:18:34.144Z,60342.00
2019-04-19T23:21:12.345Z,60370.45
2019-04-19T23:23:35.898Z,60369.43
2019-04-19T23:26:17.627Z,60360.29
2019-04-19T23:28:39.306Z,60360.29
2019-04-19T23:31:08.811Z,60344.03
2019-04-19T23:33:34.340Z,60358.25
2019-04-19T23:36:04.789Z,60368.42
2019-04-19T23:38:34.395Z,60368.42
2019-04-19T23:41:03.435Z,60363.34
2019-04-19T23:43:36.995Z,60363.34
2019-04-19T23:46:03.497Z,60370.45
2019-04-19T23:48:33.787Z,60339.96
2019-04-19T23:51:02.195Z,60378.58
2019-04-19T23:53:36.112Z,60369.43
2019-04-19T23:56:00.730Z,60374.52
2019-04-19T23:58:34.098Z,60339.96
